Time;durP1;ratioP1;P1;durP2;ratioP2;P2;SDS_P1;SDS_P2;PMS_P1;PMS_P2;Temp;Humidity;BMP_temperature;BMP_pressure;BME280_temperature;BME280_humidity;BME280_pressure;Samples;Min_cycle;Max_cycle;Signal;HPM_P1;HPM_P2
2023/03/01 00:01:09;;;;;;;15.57;13.77;;;;;;;-1.23;92.60;101187.53;5040391;28;20195;-74
2023/03/01 00:03:34;;;;;;;16.87;14.53;;;;;;;-1.23;92.91;101192.59;5043948;28;20728;-76
2023/03/01 00:06:00;;;;;;;16.97;14.47;;;;;;;-1.24;93.26;101190.84;5053583;28;20208;-73
2023/03/01 00:08:27;;;;;;;15.73;13.80;;;;;;;-1.28;93.54;101188.94;5044106;28;20758;-74
2023/03/01 00:11:08;;;;;;;15.97;14.23;;;;;;;-1.29;93.79;101191.41;5037216;28;20690;-74
2023/03/01 00:13:34;;;;;;;18.00;13.97;;;;;;;-1.33;94.13;101195.44;5053902;28;20196;-74
2023/03/01 00:16:03;;;;;;;17.07;14.17;;;;;;;-1.35;93.92;101191.94;5043110;28;20617;-74
2023/03/01 00:18:28;;;;;;;18.33;12.50;;;;;;;-1.42;94.23;101197.47;5045619;28;20266;-74
2023/03/01 00:20:54;;;;;;;16.70;13.63;;;;;;;-1.51;94.78;101196.97;5041394;28;20593;-74
2023/03/01 00:23:20;;;;;;;17.13;13.87;;;;;;;-1.57;94.95;101193.31;5041857;28;20591;-74
2023/03/01 00:25:46;;;;;;;14.57;13.07;;;;;;;-1.63;94.84;101194.63;5045991;28;20216;-74
2023/03/01 00:28:11;;;;;;;14.70;13.27;;;;;;;-1.65;94.99;101194.56;5038532;28;20939;-74
2023/03/01 00:30:36;;;;;;;15.00;13.40;;;;;;;-1.69;95.40;101191.00;5046751;28;20176;-74
2023/03/01 00:33:02;;;;;;;15.40;13.77;;;;;;;-1.72;95.80;101190.81;5084443;28;20192;-74
2023/03/01 00:35:27;;;;;;;16.20;13.93;;;;;;;-1.68;95.85;101191.84;5056326;28;20188;-75
2023/03/01 00:37:57;;;;;;;14.70;13.20;;;;;;;-1.67;96.02;101192.75;5046974;28;20225;-74
2023/03/01 00:40:23;;;;;;;14.43;12.90;;;;;;;-1.72;96.23;101195.88;5044602;28;20608;-74
2023/03/01 00:42:49;;;;;;;15.37;13.77;;;;;;;-1.74;96.65;101189.00;5047625;28;20195;-74
2023/03/01 00:45:14;;;;;;;14.87;13.27;;;;;;;-1.72;96.67;101195.88;5040918;28;20266;-74
2023/03/01 00:47:39;;;;;;;15.57;13.80;;;;;;;-1.77;96.93;101194.75;5042273;28;20209;-74
2023/03/01 00:50:05;;;;;;;15.13;13.37;;;;;;;-1.77;96.99;101192.22;5042234;28;20263;-73
2023/03/01 00:52:31;;;;;;;14.87;13.27;;;;;;;-1.82;97.39;101190.22;5043345;28;20227;-76
2023/03/01 00:54:57;;;;;;;16.23;14.50;;;;;;;-1.86;97.42;101195.09;5042354;28;22169;-74
2023/03/01 00:57:23;;;;;;;15.43;13.10;;;;;;;-1.83;97.05;101202.03;5041346;28;20226;-73
2023/03/01 00:59:48;;;;;;;14.40;12.67;;;;;;;-1.85;96.62;101196.84;5056107;28;20196;-74
2023/03/01 01:02:13;;;;;;;17.47;13.73;;;;;;;-1.85;96.32;101194.31;5038415;28;20314;-74
2023/03/01 01:04:39;;;;;;;15.47;13.63;;;;;;;-1.80;96.07;101192.03;5043143;28;20235;-74
2023/03/01 01:07:05;;;;;;;16.17;14.47;;;;;;;-1.78;95.87;101192.13;5045097;28;20200;-74
2023/03/01 01:09:31;;;;;;;17.30;13.67;;;;;;;-1.79;95.88;101178.56;5059126;28;20273;-74
2023/03/01 01:11:56;;;;;;;16.27;13.90;;;;;;;-1.79;95.75;101182.78;5045085;28;20663;-74
2023/03/01 01:14:21;;;;;;;16.03;13.57;;;;;;;-1.82;95.62;101178.41;5049829;28;20188;-73
2023/03/01 01:16:47;;;;;;;18.07;14.33;;;;;;;-1.85;95.74;101186.72;5039234;28;20641;-74
2023/03/01 01:19:13;;;;;;;17.97;12.90;;;;;;;-1.85;95.89;101189.25;5040478;28;20220;-73
2023/03/01 01:21:39;;;;;;;16.40;13.67;;;;;;;-1.85;96.53;101180.78;5044667;28;20265;-74
2023/03/01 01:24:05;;;;;;;16.23;14.53;;;;;;;-1.88;97.22;101178.06;5045802;28;20562;-73
2023/03/01 01:26:32;;;;;;;14.83;13.33;;;;;;;-1.89;97.61;101181.38;5043941;28;20212;-74
2023/03/01 01:28:59;;;;;;;14.87;13.07;;;;;;;-1.96;98.03;101179.28;5043227;28;20222;-73
2023/03/01 01:31:26;;;;;;;16.53;14.30;;;;;;;-2.01;98.05;101182.44;5041718;28;20581;-74
2023/03/01 01:33:53;;;;;;;16.87;14.47;;;;;;;-2.04;98.09;101177.19;5042974;28;20925;-73
2023/03/01 01:36:18;;;;;;;15.03;12.90;;;;;;;-2.04;97.67;101178.88;5041512;28;20594;-74
2023/03/01 01:38:44;;;;;;;14.97;13.40;;;;;;;-2.03;97.73;101166.25;5045642;28;20208;-73
2023/03/01 01:41:13;;;;;;;16.43;14.13;;;;;;;-2.07;97.73;101163.47;5043993;28;20221;-74
2023/03/01 01:43:42;;;;;;;15.77;14.03;;;;;;;-2.08;97.57;101169.34;5043843;28;20717;-74
2023/03/01 01:46:19;;;;;;;15.83;14.10;;;;;;;-2.08;97.92;101165.13;5042428;28;20385;-74
2023/03/01 01:48:49;;;;;;;16.47;13.87;;;;;;;-2.06;97.87;101155.06;5041284;28;20214;-74
2023/03/01 01:51:21;;;;;;;16.33;14.13;;;;;;;-2.07;97.95;101155.88;5041716;28;20191;-74
2023/03/01 01:53:51;;;;;;;15.00;13.50;;;;;;;-2.08;97.87;101151.56;5045206;28;20272;-74
2023/03/01 01:56:17;;;;;;;16.60;14.90;;;;;;;-2.09;98.10;101153.22;5039791;28;20175;-74
2023/03/01 01:58:43;;;;;;;15.90;13.93;;;;;;;-2.06;97.86;101150.00;5046869;28;20283;-74
2023/03/01 02:01:09;;;;;;;15.83;14.07;;;;;;;-2.06;97.62;101145.78;5038361;28;21438;-74
2023/03/01 02:03:41;;;;;;;16.47;14.77;;;;;;;-2.02;97.58;101149.38;5041679;28;20623;-73
2023/03/01 02:06:14;;;;;;;16.63;14.40;;;;;;;-2.07;97.69;101140.66;5039984;28;20588;-73
2023/03/01 02:08:42;;;;;;;17.77;14.97;;;;;;;-2.15;98.42;101135.16;5041472;28;20204;-74
2023/03/01 02:11:10;;;;;;;19.03;15.27;;;;;;;-2.17;98.72;101135.03;5042601;28;20268;-74
2023/03/01 02:13:36;;;;;;;18.00;15.20;;;;;;;-2.22;99.18;101133.94;5043768;28;20792;-74
2023/03/01 02:16:09;;;;;;;17.47;15.30;;;;;;;-2.25;99.57;101132.84;5040018;28;20682;-74
2023/03/01 02:18:34;;;;;;;16.73;14.93;;;;;;;-2.23;100.00;101131.28;5047588;28;20297;-74
2023/03/01 02:21:05;;;;;;;15.97;14.20;;;;;;;-2.27;100.00;101127.72;5041974;28;20884;-74
2023/03/01 02:23:31;;;;;;;17.30;15.37;;;;;;;-2.22;100.00;101133.03;5038892;28;20222;-74
2023/03/01 02:26:28;;;;;;;16.87;14.67;;;;;;;-2.25;100.00;101121.06;5045339;28;20261;-75
2023/03/01 02:28:53;;;;;;;16.97;15.17;;;;;;;-2.27;100.00;101114.16;5041175;28;20234;-74
2023/03/01 02:34:06;;;;;;;16.67;13.87;;;;;;;-2.37;100.00;101111.09;5047169;28;20199;-75
2023/03/01 02:36:36;;;;;;;16.50;14.63;;;;;;;-2.36;100.00;101105.25;5058504;28;20191;-74
2023/03/01 02:39:06;;;;;;;16.83;15.07;;;;;;;-2.38;100.00;101098.34;5041752;28;20261;-74
2023/03/01 02:41:36;;;;;;;15.80;14.10;;;;;;;-2.38;100.00;101099.19;5043410;28;20275;-74
2023/03/01 02:44:02;;;;;;;20.07;15.10;;;;;;;-2.39;99.73;101105.06;5043095;28;20241;-74
2023/03/01 02:46:29;;;;;;;20.23;15.63;;;;;;;-2.37;99.68;101100.09;5044184;28;20313;-74
2023/03/01 02:48:56;;;;;;;17.03;15.23;;;;;;;-2.32;100.00;101091.97;5050817;28;20584;-73
2023/03/01 02:51:33;;;;;;;18.93;16.30;;;;;;;-2.28;100.00;101097.22;5052496;28;20256;-74
2023/03/01 02:54:28;;;;;;;18.70;15.97;;;;;;;-2.29;100.00;101091.25;5043234;28;20278;-74
2023/03/01 02:56:55;;;;;;;17.37;15.07;;;;;;;-2.29;100.00;101091.25;5030791;28;20212;-74
2023/03/01 02:59:24;;;;;;;17.40;14.90;;;;;;;-2.32;100.00;101093.59;5046055;28;20201;-74
2023/03/01 03:01:49;;;;;;;17.40;15.07;;;;;;;-2.30;100.00;101081.88;5039462;28;20685;-74
2023/03/01 03:04:17;;;;;;;16.90;15.17;;;;;;;-2.28;100.00;101082.84;5044934;28;20195;-74
2023/03/01 03:06:46;;;;;;;17.47;14.60;;;;;;;-2.34;100.00;101083.38;5044343;28;20224;-74
2023/03/01 03:09:13;;;;;;;16.33;14.63;;;;;;;-2.40;100.00;101080.50;5044332;28;20290;-74
2023/03/01 03:11:40;;;;;;;18.03;15.97;;;;;;;-2.45;100.00;101082.78;5041904;28;20187;-74
2023/03/01 03:14:12;;;;;;;17.57;14.93;;;;;;;-2.47;100.00;101073.34;5046466;28;20259;-74
2023/03/01 03:16:55;;;;;;;21.23;16.70;;;;;;;-2.43;100.00;101072.75;5041816;28;20651;-74
2023/03/01 03:19:20;;;;;;;17.47;15.30;;;;;;;-2.47;100.00;101074.22;5042868;28;20245;-74
2023/03/01 03:21:46;;;;;;;18.63;16.60;;;;;;;-2.51;100.00;101074.84;5044227;28;20191;-74
2023/03/01 03:24:12;;;;;;;18.97;16.83;;;;;;;-2.50;100.00;101069.00;5046620;28;20271;-74
2023/03/01 03:26:37;;;;;;;19.13;16.37;;;;;;;-2.47;100.00;101066.59;5043271;28;20665;-74
2023/03/01 03:29:02;;;;;;;19.53;15.73;;;;;;;-2.47;100.00;101059.00;5066977;28;20306;-75
2023/03/01 03:31:28;;;;;;;19.43;15.70;;;;;;;-2.43;100.00;101061.72;5050794;28;20264;-74
2023/03/01 03:33:53;;;;;;;18.87;16.27;;;;;;;-2.43;100.00;101054.09;5045208;28;20244;-74
2023/03/01 03:36:22;;;;;;;19.67;16.70;;;;;;;-2.39;100.00;101054.34;5042166;28;20179;-74
2023/03/01 03:38:48;;;;;;;18.87;16.77;;;;;;;-2.33;100.00;101052.19;5042930;28;20350;-74
2023/03/01 03:41:14;;;;;;;17.63;15.80;;;;;;;-2.34;100.00;101052.97;5046832;28;20292;-74
2023/03/01 03:43:42;;;;;;;18.77;16.33;;;;;;;-2.29;100.00;101048.13;5044215;28;20184;-74
2023/03/01 03:46:09;;;;;;;19.30;16.63;;;;;;;-2.28;100.00;101049.88;5041751;28;20224;-74
2023/03/01 03:48:36;;;;;;;19.17;16.60;;;;;;;-2.26;100.00;101047.44;5041438;28;20717;-74
2023/03/01 03:51:05;;;;;;;19.00;16.60;;;;;;;-2.22;100.00;101049.34;5047159;28;20200;-74
2023/03/01 03:53:30;;;;;;;19.77;17.40;;;;;;;-2.19;100.00;101058.00;5048488;28;20197;-74
2023/03/01 03:55:56;;;;;;;19.20;15.93;;;;;;;-2.23;100.00;101051.03;5045363;28;20191;-74
2023/03/01 03:58:24;;;;;;;20.77;17.00;;;;;;;-2.27;100.00;101046.56;5042336;28;20210;-74
2023/03/01 04:00:55;;;;;;;18.53;16.50;;;;;;;-2.35;100.00;101047.81;5042956;28;20203;-74
2023/03/01 04:03:22;;;;;;;18.80;16.80;;;;;;;-2.45;100.00;101039.69;5040853;28;20199;-75
2023/03/01 04:05:49;;;;;;;19.17;17.13;;;;;;;-2.49;100.00;101044.50;5041114;28;20723;-74
2023/03/01 04:08:14;;;;;;;18.10;15.77;;;;;;;-2.55;100.00;101037.44;5039846;28;20206;-74
2023/03/01 04:10:42;;;;;;;18.97;16.63;;;;;;;-2.54;100.00;101039.19;5046126;28;20183;-74
2023/03/01 04:13:12;;;;;;;17.87;16.00;;;;;;;-2.55;100.00;101032.34;5040793;28;20187;-74
2023/03/01 04:15:38;;;;;;;22.43;18.53;;;;;;;-2.52;100.00;101036.72;5042340;28;20190;-74
2023/03/01 04:18:04;;;;;;;20.13;16.73;;;;;;;-2.57;100.00;101026.31;5044086;28;20216;-74
2023/03/01 04:20:34;;;;;;;21.47;17.13;;;;;;;-2.55;100.00;101032.34;5042595;28;20819;-74
2023/03/01 04:23:20;;;;;;;20.20;17.87;;;;;;;-2.58;100.00;101021.19;5040540;28;20707;-74
2023/03/01 04:25:54;;;;;;;20.17;17.00;;;;;;;-2.61;100.00;101027.81;5041548;28;20296;-74
2023/03/01 04:28:34;;;;;;;20.33;16.53;;;;;;;-2.49;100.00;101021.69;5042166;28;20211;-74
2023/03/01 04:31:12;;;;;;;20.73;17.93;;;;;;;-2.50;100.00;101018.28;5042193;28;20206;-74
2023/03/01 04:33:44;;;;;;;21.40;18.30;;;;;;;-2.50;100.00;101015.75;5046003;28;20214;-74
2023/03/01 04:36:10;;;;;;;21.33;18.43;;;;;;;-2.47;100.00;101018.44;5041060;28;20202;-74
2023/03/01 04:38:37;;;;;;;20.83;16.90;;;;;;;-2.40;100.00;101016.25;5040075;28;20732;-74
2023/03/01 04:41:05;;;;;;;20.73;17.43;;;;;;;-2.48;100.00;101014.16;5040253;28;20193;-74
2023/03/01 04:43:30;;;;;;;19.43;17.07;;;;;;;-2.45;100.00;101016.00;5038253;28;20192;-74
2023/03/01 04:46:02;;;;;;;20.77;18.17;;;;;;;-2.49;100.00;101002.28;5041392;28;20246;-74
2023/03/01 04:48:28;;;;;;;21.50;18.00;;;;;;;-2.53;100.00;101014.69;5038704;28;20210;-74
2023/03/01 04:50:53;;;;;;;20.60;18.10;;;;;;;-2.51;100.00;101005.50;5039715;28;20200;-74
2023/03/01 04:53:18;;;;;;;20.53;18.33;;;;;;;-2.57;100.00;101008.59;5049348;28;20298;-74
2023/03/01 04:55:43;;;;;;;23.07;17.80;;;;;;;-2.57;100.00;101013.66;5036979;28;20181;-74
2023/03/01 04:58:09;;;;;;;21.40;18.63;;;;;;;-2.59;100.00;101014.38;5041473;28;20219;-74
2023/03/01 05:00:34;;;;;;;20.73;18.53;;;;;;;-2.62;100.00;101021.00;5040377;28;20200;-74
2023/03/01 05:03:01;;;;;;;23.63;19.10;;;;;;;-2.65;100.00;101013.22;5045945;28;20200;-74
2023/03/01 05:05:35;;;;;;;21.90;18.53;;;;;;;-2.65;100.00;101023.34;5041669;28;20297;-74
2023/03/01 05:08:04;;;;;;;21.13;18.07;;;;;;;-2.66;100.00;101021.59;5048289;28;20225;-74
2023/03/01 05:10:31;;;;;;;21.83;18.70;;;;;;;-2.70;100.00;101021.34;5042300;28;20195;-74
2023/03/01 05:12:57;;;;;;;25.23;20.17;;;;;;;-2.70;100.00;101019.69;5045182;28;20599;-74
2023/03/01 05:15:27;;;;;;;22.90;19.33;;;;;;;-2.66;100.00;101025.81;5047786;28;20185;-74
2023/03/01 05:17:54;;;;;;;21.47;18.60;;;;;;;-2.66;100.00;101024.16;5054329;28;20238;-74
2023/03/01 05:20:23;;;;;;;23.53;19.33;;;;;;;-2.61;100.00;101022.75;5055518;28;20186;-74
2023/03/01 05:22:50;;;;;;;22.93;20.13;;;;;;;-2.58;100.00;101013.59;5050559;28;20213;-74
2023/03/01 05:25:16;;;;;;;21.67;18.70;;;;;;;-2.60;100.00;101016.00;5054991;28;20209;-74
2023/03/01 05:27:42;;;;;;;21.93;18.43;;;;;;;-2.63;100.00;101025.97;5044169;28;20691;-74
2023/03/01 05:30:14;;;;;;;21.50;18.63;;;;;;;-2.68;100.00;101018.13;5048985;28;20214;-74
2023/03/01 05:32:49;;;;;;;23.40;19.57;;;;;;;-2.68;100.00;101023.19;5058270;28;20207;-74
2023/03/01 05:35:16;;;;;;;24.37;18.93;;;;;;;-2.71;100.00;101017.94;5038900;28;20700;-74
2023/03/01 05:37:47;;;;;;;23.57;19.03;;;;;;;-2.71;100.00;101015.41;5039892;28;20718;-77
2023/03/01 05:40:17;;;;;;;23.60;19.70;;;;;;;-2.67;100.00;101024.94;5037498;28;20198;-74
2023/03/01 05:43:04;;;;;;;22.63;19.13;;;;;;;-2.68;100.00;101019.78;5042773;28;20233;-73
2023/03/01 05:45:32;;;;;;;22.70;19.60;;;;;;;-2.72;100.00;101008.59;5042753;28;20299;-73
2023/03/01 05:47:57;;;;;;;23.40;19.50;;;;;;;-2.69;100.00;101011.28;5060652;28;20204;-73
2023/03/01 05:50:28;;;;;;;23.10;19.80;;;;;;;-2.66;100.00;101013.16;5038652;28;20193;-73
2023/03/01 05:53:07;;;;;;;21.63;19.33;;;;;;;-2.71;100.00;101024.69;5041918;28;20225;-73
2023/03/01 05:55:32;;;;;;;22.77;20.03;;;;;;;-2.72;100.00;101015.31;5040237;28;20197;-73
2023/03/01 05:58:00;;;;;;;25.27;20.67;;;;;;;-2.75;100.00;101013.50;5039476;28;20253;-73
2023/03/01 06:00:26;;;;;;;25.17;20.13;;;;;;;-2.80;100.00;101015.75;5043605;28;20195;-73
2023/03/01 06:02:54;;;;;;;23.40;19.87;;;;;;;-2.78;100.00;101019.25;5059153;28;20187;-73
2023/03/01 06:05:19;;;;;;;23.00;20.27;;;;;;;-2.78;100.00;101019.25;5071223;28;20208;-72
2023/03/01 06:07:44;;;;;;;24.53;20.53;;;;;;;-2.79;100.00;101017.50;5049518;28;20308;-73
2023/03/01 06:10:11;;;;;;;25.33;20.57;;;;;;;-2.79;100.00;101029.31;5060051;28;20191;-73
2023/03/01 06:12:37;;;;;;;27.07;19.77;;;;;;;-2.78;100.00;101019.25;5042150;28;20660;-73
2023/03/01 06:15:04;;;;;;;22.13;19.57;;;;;;;-2.79;100.00;101021.72;5047559;28;20198;-73
2023/03/01 06:17:31;;;;;;;23.73;20.23;;;;;;;-2.75;100.00;101018.56;5050689;28;20218;-73
2023/03/01 06:19:57;;;;;;;25.63;20.83;;;;;;;-2.74;100.00;101029.56;5050544;28;20708;-73
2023/03/01 06:22:22;;;;;;;24.37;21.23;;;;;;;-2.74;100.00;101022.84;5043033;28;20188;-73
2023/03/01 06:24:48;;;;;;;25.20;20.50;;;;;;;-2.70;100.00;101021.34;5047873;28;20240;-73
2023/03/01 06:27:13;;;;;;;26.23;21.10;;;;;;;-2.70;100.00;101018.81;5049241;28;20268;-73
2023/03/01 06:29:38;;;;;;;25.73;21.27;;;;;;;-2.65;100.00;101030.97;5049476;28;20191;-73
2023/03/01 06:32:04;;;;;;;25.13;20.80;;;;;;;-2.66;100.00;101025.81;5063485;28;20571;-73
2023/03/01 06:34:30;;;;;;;26.80;21.73;;;;;;;-2.62;100.00;101020.13;5048579;28;20179;-73
2023/03/01 06:36:56;;;;;;;26.93;21.80;;;;;;;-2.57;100.00;101028.00;5050810;28;20724;-73
2023/03/01 06:39:21;;;;;;;23.00;19.37;;;;;;;-2.54;100.00;101018.00;5050521;28;20183;-73
2023/03/01 06:41:46;;;;;;;24.07;20.70;;;;;;;-2.52;100.00;101024.94;5050957;28;20196;-73
2023/03/01 06:44:12;;;;;;;25.77;20.83;;;;;;;-2.49;100.00;101017.47;5049189;28;20196;-73
2023/03/01 06:46:38;;;;;;;25.87;21.93;;;;;;;-2.43;100.00;101021.16;5048368;28;20214;-73
2023/03/01 06:49:07;;;;;;;24.50;20.43;;;;;;;-2.38;100.00;101015.53;5048310;28;20211;-73
2023/03/01 06:51:33;;;;;;;23.93;20.57;;;;;;;-2.27;100.00;101020.34;5049546;28;20274;-73
2023/03/01 06:53:58;;;;;;;24.60;20.03;;;;;;;-2.21;100.00;101010.53;5050609;28;20300;-73
2023/03/01 06:56:23;;;;;;;22.80;20.40;;;;;;;-2.16;100.00;101012.53;5049869;28;20190;-73
2023/03/01 06:58:48;;;;;;;26.10;20.63;;;;;;;-2.08;100.00;101014.63;5047500;28;20218;-73
2023/03/01 07:01:14;;;;;;;23.93;20.63;;;;;;;-2.02;100.00;101010.75;5050097;28;20712;-73
2023/03/01 07:03:39;;;;;;;29.97;20.77;;;;;;;-1.98;100.00;101011.78;5044623;28;20855;-73
2023/03/01 07:06:05;;;;;;;25.23;20.93;;;;;;;-1.94;100.00;101021.31;5063967;28;20267;-72
2023/03/01 07:08:30;;;;;;;25.10;20.60;;;;;;;-1.93;100.00;101002.75;5055739;28;20240;-73
2023/03/01 07:10:56;;;;;;;21.83;19.23;;;;;;;-1.92;100.00;101001.06;5058558;28;20674;-73
2023/03/01 07:13:22;;;;;;;24.90;19.67;;;;;;;-1.85;100.00;100998.94;5051756;28;20549;-72
2023/03/01 07:15:47;;;;;;;23.73;19.77;;;;;;;-1.79;100.00;101000.06;5061878;28;20192;-73
2023/03/01 07:18:12;;;;;;;22.77;20.30;;;;;;;-1.76;100.00;100993.50;5053803;28;20207;-73
2023/03/01 07:20:38;;;;;;;25.63;20.30;;;;;;;-1.71;99.80;100994.63;5038110;28;20201;-74
2023/03/01 07:23:05;;;;;;;25.23;20.33;;;;;;;-1.66;99.27;100992.31;5037204;28;20189;-73
2023/03/01 07:25:30;;;;;;;26.53;21.27;;;;;;;-1.63;98.90;100984.84;5037270;28;20267;-73
2023/03/01 07:27:56;;;;;;;27.00;20.97;;;;;;;-1.59;99.00;100985.88;5038752;28;20207;-73
2023/03/01 07:30:22;;;;;;;23.93;21.10;;;;;;;-1.56;98.88;100988.59;5054529;28;20302;-73
2023/03/01 07:32:47;;;;;;;23.83;20.70;;;;;;;-1.51;98.26;100992.22;5038950;28;20213;-72
2023/03/01 07:35:14;;;;;;;25.93;20.53;;;;;;;-1.47;97.99;100981.44;5037686;28;20180;-73
2023/03/01 07:37:40;;;;;;;23.23;20.73;;;;;;;-1.46;97.59;100979.78;5037863;28;20707;-74
2023/03/01 07:40:06;;;;;;;22.73;20.30;;;;;;;-1.42;97.51;100982.53;5033512;28;20440;-73
2023/03/01 07:42:31;;;;;;;22.93;20.07;;;;;;;-1.35;97.17;100990.47;5034759;28;20192;-73
2023/03/01 07:44:56;;;;;;;22.40;19.97;;;;;;;-1.31;97.12;100974.59;5052278;28;20622;-73
2023/03/01 07:47:22;;;;;;;23.03;20.53;;;;;;;-1.27;96.42;100972.28;5037991;28;20207;-73
2023/03/01 07:49:47;;;;;;;22.73;20.10;;;;;;;-1.23;96.29;100984.34;5035034;28;20661;-73
2023/03/01 07:52:12;;;;;;;23.07;20.57;;;;;;;-1.24;95.74;100974.97;5034053;28;20317;-73
2023/03/01 07:54:38;;;;;;;25.33;20.87;;;;;;;-1.17;95.63;100975.28;5051075;28;20185;-73
2023/03/01 07:57:04;;;;;;;24.37;21.10;;;;;;;-1.13;95.36;100972.09;5042442;28;20742;-73
2023/03/01 07:59:29;;;;;;;23.37;20.07;;;;;;;-1.07;96.09;100974.94;5044379;28;20193;-72
2023/03/01 08:01:58;;;;;;;24.13;20.80;;;;;;;-0.96;95.51;100983.09;5049042;28;20294;-73
2023/03/01 08:04:24;;;;;;;25.10;21.70;;;;;;;-0.92;94.54;100970.63;5051737;28;20183;-73
2023/03/01 08:06:50;;;;;;;24.37;19.87;;;;;;;-0.85;94.61;100965.84;5042618;28;20214;-73
2023/03/01 08:09:16;;;;;;;26.73;19.70;;;;;;;-0.79;93.73;100968.66;5041850;28;20612;-73
2023/03/01 08:11:41;;;;;;;24.57;20.30;;;;;;;-0.76;93.38;100971.34;5067196;28;20231;-73
2023/03/01 08:14:07;;;;;;;33.57;21.20;;;;;;;-0.67;93.00;100971.78;5055436;28;20195;-73
2023/03/01 08:16:35;;;;;;;25.17;20.27;;;;;;;-0.60;92.93;100954.28;5043563;28;20194;-73
2023/03/01 08:19:07;;;;;;;140.80;36.33;;;;;;;-0.57;92.51;100964.63;5047199;28;20210;-73
2023/03/01 08:21:34;;;;;;;28.03;22.03;;;;;;;-0.51;92.59;100953.06;5046643;28;20889;-73
2023/03/01 08:24:00;;;;;;;55.60;25.57;;;;;;;-0.47;91.65;100954.97;5056348;28;20191;-74
2023/03/01 08:26:25;;;;;;;43.43;23.40;;;;;;;-0.41;91.52;100951.81;5057033;28;20217;-73
2023/03/01 08:28:51;;;;;;;41.27;22.40;;;;;;;-0.36;90.76;100949.50;5057368;28;20194;-73
2023/03/01 08:31:29;;;;;;;35.50;22.87;;;;;;;-0.29;91.05;100971.00;5055328;28;20197;-73
2023/03/01 08:33:57;;;;;;;43.63;24.03;;;;;;;-0.25;90.92;100947.44;5046400;28;20179;-73
2023/03/01 08:36:28;;;;;;;30.73;21.77;;;;;;;-0.18;90.40;100947.78;5045932;28;20180;-73
2023/03/01 08:38:53;;;;;;;23.97;20.67;;;;;;;-0.07;90.38;100953.34;5038693;28;20309;-73
2023/03/01 08:41:19;;;;;;;23.17;20.40;;;;;;;-0.03;89.77;100950.13;5046715;28;20630;-73
2023/03/01 08:43:45;;;;;;;29.63;21.33;;;;;;;0.01;89.80;100942.66;5046093;28;20198;-73
2023/03/01 08:46:12;;;;;;;25.73;20.97;;;;;;;0.10;89.43;100943.03;5045438;28;20710;-73
2023/03/01 08:48:37;;;;;;;28.40;22.17;;;;;;;0.17;89.39;100934.91;5044033;28;20302;-73
2023/03/01 08:51:11;;;;;;;33.60;22.67;;;;;;;0.26;89.19;100930.19;5041409;28;20345;-73
2023/03/01 08:53:36;;;;;;;46.33;24.60;;;;;;;0.26;88.65;100937.81;5037238;28;20202;-74
2023/03/01 08:56:02;;;;;;;23.27;20.17;;;;;;;0.33;88.93;100938.09;5037181;28;20183;-73
2023/03/01 08:58:28;;;;;;;25.00;21.10;;;;;;;0.39;88.99;100931.59;5039269;28;20627;-73
2023/03/01 09:00:53;;;;;;;22.67;20.27;;;;;;;0.45;87.96;100925.91;5035512;28;20198;-73
2023/03/01 09:03:19;;;;;;;23.53;20.83;;;;;;;0.51;88.11;100915.09;5041461;28;20563;-73
2023/03/01 09:05:45;;;;;;;24.27;20.97;;;;;;;0.57;88.11;100915.38;5042349;28;20302;-73
2023/03/01 09:08:11;;;;;;;25.50;20.83;;;;;;;0.64;87.44;100911.41;5042863;28;20202;-74
2023/03/01 09:10:38;;;;;;;22.80;20.30;;;;;;;0.73;87.25;100914.31;5045353;28;20179;-73
2023/03/01 09:13:03;;;;;;;23.80;20.67;;;;;;;0.78;87.12;100909.41;5048454;28;20190;-73
2023/03/01 09:15:28;;;;;;;35.60;22.53;;;;;;;0.84;87.09;100897.78;5058197;28;20205;-74
2023/03/01 09:17:54;;;;;;;30.97;22.17;;;;;;;0.96;87.24;100910.16;5041753;28;20266;-74
2023/03/01 09:20:19;;;;;;;26.80;21.60;;;;;;;1.03;86.25;100903.63;5044823;28;20589;-73
2023/03/01 09:22:44;;;;;;;29.20;21.83;;;;;;;1.07;85.30;100908.03;5048298;28;20193;-73
2023/03/01 09:25:10;;;;;;;23.57;20.63;;;;;;;1.15;85.86;100899.00;5041861;28;20210;-73
2023/03/01 09:27:35;;;;;;;23.57;21.17;;;;;;;1.22;85.31;100900.09;5044437;28;20242;-73
2023/03/01 09:30:01;;;;;;;34.47;22.73;;;;;;;1.25;85.00;100902.78;5042444;28;20209;-73
2023/03/01 09:32:26;;;;;;;33.93;22.37;;;;;;;1.35;85.40;100897.25;5047980;28;20273;-73
2023/03/01 09:35:04;;;;;;;24.60;22.07;;;;;;;1.46;84.95;100895.09;5043330;28;20225;-74
2023/03/01 09:37:32;;;;;;;31.40;21.83;;;;;;;1.58;84.68;100891.28;5046524;28;20268;-73
2023/03/01 09:39:57;;;;;;;62.80;26.10;;;;;;;1.63;84.63;100898.28;5044913;28;20189;-74
2023/03/01 09:42:22;;;;;;;22.83;20.53;;;;;;;1.70;84.25;100889.19;5048898;28;20178;-74
2023/03/01 09:44:54;;;;;;;22.90;20.50;;;;;;;1.79;83.94;100884.41;5045493;28;20278;-74
2023/03/01 09:47:25;;;;;;;27.90;22.13;;;;;;;1.82;82.92;100894.72;5043533;28;20283;-74
2023/03/01 09:50:13;;;;;;;25.30;20.93;;;;;;;1.86;82.06;100875.28;5055030;28;20191;-74
2023/03/01 09:52:48;;;;;;;32.20;22.27;;;;;;;1.86;81.85;100882.94;5046245;28;20248;-74
2023/03/01 09:55:17;;;;;;;30.17;22.57;;;;;;;1.91;81.78;100878.00;5049840;28;20239;-74
2023/03/01 09:57:45;;;;;;;25.97;22.00;;;;;;;1.92;81.36;100875.50;5047266;28;20253;-73
2023/03/01 10:00:20;;;;;;;23.17;20.67;;;;;;;1.97;82.08;100868.00;5047809;28;20182;-74
2023/03/01 10:02:59;;;;;;;23.53;21.13;;;;;;;2.00;81.43;100870.69;5044615;28;20183;-74
2023/03/01 10:05:47;;;;;;;22.77;20.47;;;;;;;2.05;81.45;100870.84;5052941;28;20206;-74
2023/03/01 10:08:33;;;;;;;25.37;21.63;;;;;;;2.10;81.30;100861.66;5053290;28;20827;-73
2023/03/01 10:10:58;;;;;;;28.13;22.53;;;;;;;2.18;80.88;100869.59;5044593;28;20212;-73
2023/03/01 10:13:28;;;;;;;23.17;20.60;;;;;;;2.25;81.00;100861.31;5048696;28;20194;-73
2023/03/01 10:15:58;;;;;;;23.23;20.47;;;;;;;2.27;80.16;100855.44;5051683;28;20247;-73
2023/03/01 10:18:29;;;;;;;24.60;22.07;;;;;;;2.31;80.17;100843.66;5050840;28;20205;-74
2023/03/01 10:21:00;;;;;;;23.00;20.57;;;;;;;2.34;79.89;100845.44;5046015;28;20191;-74
2023/03/01 10:23:30;;;;;;;24.57;21.53;;;;;;;2.42;80.33;100844.03;5038192;28;20203;-73
2023/03/01 10:26:23;;;;;;;23.73;21.37;;;;;;;2.51;79.63;100858.75;5055552;28;20255;-74
2023/03/01 10:29:07;;;;;;;24.13;20.30;;;;;;;2.56;78.69;100841.91;5043519;28;21010;-74
2023/03/01 10:31:40;;;;;;;47.43;25.90;;;;;;;2.62;79.62;100836.13;5043022;28;20251;-73
2023/03/01 10:34:34;;;;;;;24.27;21.67;;;;;;;2.73;78.51;100834.75;5048448;28;20701;-74
2023/03/01 10:37:18;;;;;;;30.43;22.70;;;;;;;2.81;78.77;100846.13;5040631;28;20586;-74
2023/03/01 10:40:08;;;;;;;52.33;28.37;;;;;;;2.83;78.14;100835.94;5049673;28;20194;-73
2023/03/01 10:42:34;;;;;;;23.03;20.60;;;;;;;2.90;77.92;100825.94;5048598;28;20194;-74
2023/03/01 10:45:33;;;;;;;23.40;20.90;;;;;;;2.99;77.79;100827.06;5062680;28;20225;-74
2023/03/01 10:48:12;;;;;;;22.83;20.33;;;;;;;3.05;77.62;100822.13;5045794;28;20260;-73
2023/03/01 10:50:39;;;;;;;22.00;19.80;;;;;;;3.07;77.44;100819.63;5043958;28;20198;-74
2023/03/01 10:53:09;;;;;;;35.07;23.60;;;;;;;3.15;77.60;100828.38;5048160;28;20190;-74
2023/03/01 10:55:39;;;;;;;24.47;21.87;;;;;;;3.23;76.51;100828.63;5055209;28;20183;-74
2023/03/01 10:58:14;;;;;;;23.13;20.80;;;;;;;3.25;76.27;100826.97;5063952;28;20249;-74
2023/03/01 11:00:52;;;;;;;23.73;21.30;;;;;;;3.20;75.89;100804.69;5048017;28;20197;-73
2023/03/01 11:03:29;;;;;;;23.77;21.23;;;;;;;3.32;77.08;100811.84;5048112;28;20218;-74
2023/03/01 11:05:54;;;;;;;23.93;21.43;;;;;;;3.42;75.98;100805.31;5053538;28;20701;-74
2023/03/01 11:08:30;;;;;;;23.33;20.93;;;;;;;3.45;76.08;100807.97;5046101;28;20238;-74
2023/03/01 11:11:15;;;;;;;23.90;21.60;;;;;;;3.48;75.63;100808.03;5052095;28;20186;-73
2023/03/01 11:14:17;;;;;;;25.20;22.47;;;;;;;3.54;76.06;100786.88;5048429;28;20234;-74
2023/03/01 11:16:48;;;;;;;24.10;21.73;;;;;;;3.53;75.17;100786.81;5055291;28;20214;-72